Moby Baby — ICEM — position and weather

sailwx.info

Track history (hours):
 
Tides and Currents Weather Stations Pressure Air Temp Water Temp Dewpoint Dewpoint Depression Visibility Wind Speed Wind Dir Waves Ship Positions

Moby Baby

Last reported at 2015-Mar-29 20:32 UTC. Time now 2015-Mar-29 20:48 UTC.
Position N 42°49' E 010°19'.

Length 99 m; draft 4.5 m.

Type: Ship. MMSI: 247049900.

Date/timePositionNaut miles runAvg speedWind from/ knotsBaromVisibWave heightAir tempDewpointWater temp
2015-Mar-29 20:32N 42°49' E 010°19'0 0.0
2015-Mar-29 19:30N 42°49' E 010°19'0 0.0
2015-Mar-29 18:33N 42°49' E 010°19'0 0.0
2015-Mar-29 17:33N 42°49' E 010°19'0 0.0
2015-Mar-29 16:32N 42°49' E 010°19'0 0.0
2015-Mar-29 15:33N 42°49' E 010°19'0 0.0
2015-Mar-29 11:25N 42°49' E 010°19'0 0.0
2015-Mar-29 10:27N 42°49' E 010°19'0 0.0
2015-Mar-29 09:32N 42°49' E 010°19'0 0.0
2015-Mar-29 08:33N 42°49' E 010°19'0 0.0
2015-Mar-29 07:33N 42°49' E 010°19'0 0.0
2015-Mar-29 06:33N 42°49' E 010°19'0 0.0
2015-Mar-29 05:33N 42°49' E 010°19'0 0.0
2015-Mar-29 04:33N 42°49' E 010°19'0 0.0
2015-Mar-29 03:31N 42°49' E 010°19'0 0.0
2015-Mar-29 02:32N 42°49' E 010°19'0 0.0
2015-Mar-29 01:33N 42°49' E 010°19'0 0.0
2015-Mar-29 00:29N 42°49' E 010°19'0 0.0
2015-Mar-28 23:14N 42°49' E 010°19'0 0.0
2015-Mar-28 22:33N 42°49' E 010°19'0 0.0
2015-Mar-28 21:33N 42°49' E 010°19'0 0.0
2015-Mar-28 20:33N 42°49' E 010°19'0 0.0
2015-Mar-28 19:33N 42°49' E 010°19'0 0.0
2015-Mar-28 18:25N 42°49' E 010°19'0 0.0
2015-Mar-28 17:33N 42°49' E 010°19'0 0.0
2015-Mar-28 15:33N 42°49' E 010°19'0 0.0
2015-Mar-28 14:29N 42°49' E 010°19'0 0.0
2015-Mar-28 13:17N 42°49' E 010°19'  
2015-Mar-24 14:21N 42°54' E 010°29'9 0.6
2015-Mar-23 22:33N 42°49' E 010°19'0 0.0
2015-Mar-23 21:07N 42°49' E 010°19'0 0.0
2015-Mar-23 20:33N 42°49' E 010°19'0 0.0
2015-Mar-23 19:29N 42°49' E 010°19'0 0.0
2015-Mar-23 18:33N 42°49' E 010°19'0 0.0
2015-Mar-23 17:23N 42°49' E 010°19'0 0.0
2015-Mar-23 16:33N 42°49' E 010°19'0 0.0
2015-Mar-23 15:30N 42°49' E 010°19'11 0.3
2015-Mar-22 07:12N 42°55' E 010°32'0 0.4
2015-Mar-22 06:19N 42°54' E 010°32'0 0.0
2015-Mar-21 14:11N 42°55' E 010°32'5 0.8
2015-Mar-21 07:31N 42°53' E 010°25'6 6.3
2015-Mar-21 06:30N 42°56' E 010°33'1212.9
2015-Mar-21 05:33N 42°49' E 010°19'0 0.1
2015-Mar-21 04:30N 42°49' E 010°19'0 0.0
2015-Mar-21 03:33N 42°49' E 010°19'2 0.2
2015-Mar-20 20:21N 42°50' E 010°21'11 4.9
2015-Mar-20 18:10N 42°56' E 010°33'812.2
2015-Mar-20 17:33N 42°52' E 010°24'5 4.6
2015-Mar-20 16:30N 42°49' E 010°19'0 0.0
2015-Mar-20 15:32N 42°49' E 010°19'6 6.2
2015-Mar-20 14:33N 42°53' E 010°25'7 5.1
2015-Mar-20 13:15N 42°56' E 010°33'913.1
2015-Mar-20 12:33N 42°51' E 010°22'3 1.3
2015-Mar-20 10:33N 42°53' E 010°25'7 6.9
2015-Mar-20 09:33N 42°56' E 010°33'12 8.8
2015-Mar-20 08:08N 42°49' E 010°19'610.3
2015-Mar-20 07:33N 42°53' E 010°25'7 6.3
2015-Mar-20 06:31N 42°56' E 010°33'1210.5
2015-Mar-20 05:21N 42°49' E 010°19'0 0.0
2015-Mar-20 04:05N 42°49' E 010°19'0 0.0
2015-Mar-20 02:31N 42°49' E 010°19'0 0.0
2015-Mar-20 00:30N 42°49' E 010°19'0 0.0
2015-Mar-19 22:32N 42°49' E 010°19'  
Track history (hours):
 
Tides and Currents Weather Stations Pressure Air Temp Water Temp Dewpoint Dewpoint Depression Visibility Wind Speed Wind Dir Waves Ship Positions

Moby Baby

Last reported at 2015-Mar-29 20:32 UTC. Time now 2015-Mar-29 20:48 UTC.
Position N 42°49' E 010°19'.

Length 99 m; draft 4.5 m.

Type: Ship. MMSI: 247049900.

Date/timePositionNaut miles runAvg speedWind from/ knotsBaromVisibWave heightAir tempDewpointWater temp
2015-Mar-29 20:32N 42°49' E 010°19'0 0.0
2015-Mar-29 19:30N 42°49' E 010°19'0 0.0
2015-Mar-29 18:33N 42°49' E 010°19'0 0.0
2015-Mar-29 17:33N 42°49' E 010°19'0 0.0
2015-Mar-29 16:32N 42°49' E 010°19'0 0.0
2015-Mar-29 15:33N 42°49' E 010°19'0 0.0
2015-Mar-29 11:25N 42°49' E 010°19'0 0.0
2015-Mar-29 10:27N 42°49' E 010°19'0 0.0
2015-Mar-29 09:32N 42°49' E 010°19'0 0.0
2015-Mar-29 08:33N 42°49' E 010°19'0 0.0
2015-Mar-29 07:33N 42°49' E 010°19'0 0.0
2015-Mar-29 06:33N 42°49' E 010°19'0 0.0
2015-Mar-29 05:33N 42°49' E 010°19'0 0.0
2015-Mar-29 04:33N 42°49' E 010°19'0 0.0
2015-Mar-29 03:31N 42°49' E 010°19'0 0.0
2015-Mar-29 02:32N 42°49' E 010°19'0 0.0
2015-Mar-29 01:33N 42°49' E 010°19'0 0.0
2015-Mar-29 00:29N 42°49' E 010°19'0 0.0
2015-Mar-28 23:14N 42°49' E 010°19'0 0.0
2015-Mar-28 22:33N 42°49' E 010°19'0 0.0
2015-Mar-28 21:33N 42°49' E 010°19'0 0.0
2015-Mar-28 20:33N 42°49' E 010°19'0 0.0
2015-Mar-28 19:33N 42°49' E 010°19'0 0.0
2015-Mar-28 18:25N 42°49' E 010°19'0 0.0
2015-Mar-28 17:33N 42°49' E 010°19'0 0.0
2015-Mar-28 15:33N 42°49' E 010°19'0 0.0
2015-Mar-28 14:29N 42°49' E 010°19'0 0.0
2015-Mar-28 13:17N 42°49' E 010°19'  
2015-Mar-24 14:21N 42°54' E 010°29'9 0.6
2015-Mar-23 22:33N 42°49' E 010°19'0 0.0
2015-Mar-23 21:07N 42°49' E 010°19'0 0.0
2015-Mar-23 20:33N 42°49' E 010°19'0 0.0
2015-Mar-23 19:29N 42°49' E 010°19'0 0.0
2015-Mar-23 18:33N 42°49' E 010°19'0 0.0
2015-Mar-23 17:23N 42°49' E 010°19'0 0.0
2015-Mar-23 16:33N 42°49' E 010°19'0 0.0
2015-Mar-23 15:30N 42°49' E 010°19'11 0.3
2015-Mar-22 07:12N 42°55' E 010°32'0 0.4
2015-Mar-22 06:19N 42°54' E 010°32'0 0.0
2015-Mar-21 14:11N 42°55' E 010°32'5 0.8
2015-Mar-21 07:31N 42°53' E 010°25'6 6.3
2015-Mar-21 06:30N 42°56' E 010°33'1212.9
2015-Mar-21 05:33N 42°49' E 010°19'0 0.1
2015-Mar-21 04:30N 42°49' E 010°19'0 0.0
2015-Mar-21 03:33N 42°49' E 010°19'2 0.2
2015-Mar-20 20:21N 42°50' E 010°21'11 4.9
2015-Mar-20 18:10N 42°56' E 010°33'812.2
2015-Mar-20 17:33N 42°52' E 010°24'5 4.6
2015-Mar-20 16:30N 42°49' E 010°19'0 0.0
2015-Mar-20 15:32N 42°49' E 010°19'6 6.2
2015-Mar-20 14:33N 42°53' E 010°25'7 5.1
2015-Mar-20 13:15N 42°56' E 010°33'913.1
2015-Mar-20 12:33N 42°51' E 010°22'3 1.3
2015-Mar-20 10:33N 42°53' E 010°25'7 6.9
2015-Mar-20 09:33N 42°56' E 010°33'12 8.8
2015-Mar-20 08:08N 42°49' E 010°19'610.3
2015-Mar-20 07:33N 42°53' E 010°25'7 6.3
2015-Mar-20 06:31N 42°56' E 010°33'1210.5
2015-Mar-20 05:21N 42°49' E 010°19'0 0.0
2015-Mar-20 04:05N 42°49' E 010°19'0 0.0
2015-Mar-20 02:31N 42°49' E 010°19'0 0.0
2015-Mar-20 00:30N 42°49' E 010°19'0 0.0
2015-Mar-19 22:32N 42°49' E 010°19'  

Dump ship's entire track history